Aviation-Friends-Hamburg. Das neue Portal der Airbus-Freunde für Hamburg und Norddeutschland

Normale Version: Runwaykonfiguration
Du siehst gerade eine vereinfachte Darstellung unserer Inhalte. Normale Ansicht mit richtiger Formatierung.
Aktuelle Runwaykonfiguration werden hier gepostet.
EDDH/HAM am 19.01.2018 - 0910

Landing: 23

Takeoff : 33


Gruß

Helmut

Data at: 0810 UTC 19 Jan 2018
METAR for:
EDDH (Hamburg Arpt, --, DL)
Text:
EDDH 190750Z 23005KT 9000 FEW005 SCT049 01/M00 Q1003 R05/290195 R15/610395 TEMPO BKN006
Temperature:
1.0°C ( 34°F)
Dewpoint:
0.0°C ( 32°F) [RH = 93%]
Pressure (altimeter):
29.62 inches Hg (1003.0 mb)
Winds:
from the SW (230 degrees) at 6 MPH (5 knots; 2.6 m/s)
Visibility:
6 sm ( 9 km)
Ceiling:
at least 12,000 feet AGL
Clouds:
few clouds at 500 feet AGL, scattered clouds at 4900 feet AGL